createdAt,value
2022-11-29T00:01:33.972Z,-2.47
2022-11-29T00:04:01.443Z,-2.54
2022-11-29T00:06:32.733Z,-2.54
2022-11-29T00:09:02.399Z,-2.53
2022-11-29T00:11:51.337Z,-2.50
2022-11-29T00:14:19.592Z,-2.44
2022-11-29T00:16:50.897Z,-2.39
2022-11-29T00:19:17.596Z,-2.41
2022-11-29T00:21:44.377Z,-2.46
2022-11-29T00:24:11.178Z,-2.48
2022-11-29T00:26:38.247Z,-2.46
2022-11-29T00:29:05.037Z,-2.47
2022-11-29T00:31:32.879Z,-2.60
2022-11-29T00:34:01.601Z,-2.56
2022-11-29T00:36:28.851Z,-2.67
2022-11-29T00:38:55.587Z,-2.73
2022-11-29T00:41:22.303Z,-2.74
2022-11-29T00:43:48.952Z,-2.77
2022-11-29T00:46:15.753Z,-2.80
2022-11-29T00:48:42.407Z,-2.79
2022-11-29T00:51:09.300Z,-2.77
2022-11-29T00:53:36.999Z,-2.78
2022-11-29T00:56:04.841Z,-2.80
2022-11-29T00:58:31.752Z,-2.78
2022-11-29T01:00:58.431Z,-2.77
2022-11-29T01:03:25.343Z,-2.75
2022-11-29T01:05:52.304Z,-2.77
2022-11-29T01:08:19.294Z,-2.78
2022-11-29T01:10:46.044Z,-2.77
2022-11-29T01:13:14.041Z,-2.80
2022-11-29T01:15:41.603Z,-2.76
2022-11-29T01:18:08.182Z,-2.80
2022-11-29T01:20:34.800Z,-2.78
2022-11-29T01:23:01.493Z,-2.76
2022-11-29T01:25:29.372Z,-2.75
2022-11-29T01:27:56.001Z,-2.80
2022-11-29T01:30:22.676Z,-2.81
2022-11-29T01:32:49.408Z,-2.76
2022-11-29T01:35:16.139Z,-2.75
2022-11-29T01:37:42.764Z,-2.85
2022-11-29T01:40:09.741Z,-2.89
2022-11-29T01:42:36.290Z,-2.90
2022-11-29T01:45:08.585Z,-2.98
2022-11-29T01:47:45.849Z,-3.00
2022-11-29T01:50:13.290Z,-3.10
2022-11-29T01:52:40.635Z,-3.15
2022-11-29T01:55:09.872Z,-3.22
2022-11-29T01:57:39.973Z,-3.21
2022-11-29T02:00:16.115Z,-3.17
2022-11-29T02:02:52.050Z,-3.24
2022-11-29T02:05:20.185Z,-3.40
2022-11-29T02:07:50.599Z,-3.31
2022-11-29T02:10:18.340Z,-3.31
2022-11-29T02:13:08.037Z,-3.25
2022-11-29T02:15:46.331Z,-3.08
2022-11-29T02:18:19.465Z,-3.19
2022-11-29T02:21:07.358Z,-3.23
2022-11-29T02:23:58.296Z,-3.23
2022-11-29T02:26:49.055Z,-3.17
2022-11-29T02:29:43.441Z,-3.24
2022-11-29T02:32:41.242Z,-3.37
2022-11-29T02:35:13.846Z,-3.36
2022-11-29T02:37:58.818Z,-3.39
2022-11-29T02:40:34.740Z,-3.29
2022-11-29T02:43:19.272Z,-3.25
2022-11-29T02:46:04.728Z,-3.23
2022-11-29T02:48:53.837Z,-3.21
2022-11-29T02:51:32.962Z,-3.29
2022-11-29T02:54:21.251Z,-3.23
2022-11-29T02:57:00.207Z,-3.23
2022-11-29T02:59:41.718Z,-3.24
2022-11-29T03:02:35.803Z,-3.16
2022-11-29T03:05:28.482Z,-3.16
2022-11-29T03:08:10.192Z,-3.22
2022-11-29T03:10:49.042Z,-3.25
2022-11-29T03:13:41.794Z,-3.30
2022-11-29T03:16:43.084Z,-3.27
2022-11-29T03:19:19.406Z,-3.35
2022-11-29T03:21:59.591Z,-3.35
2022-11-29T03:24:40.803Z,-3.36
2022-11-29T03:27:13.619Z,-3.42
2022-11-29T03:29:51.330Z,-3.41
2022-11-29T03:32:35.395Z,-3.36
2022-11-29T03:35:13.472Z,-3.31
2022-11-29T03:37:59.828Z,-3.25
2022-11-29T03:40:52.377Z,-3.21
2022-11-29T03:43:30.808Z,-3.26
2022-11-29T03:46:11.232Z,-3.29
2022-11-29T03:48:48.332Z,-3.28
2022-11-29T03:51:38.901Z,-3.23
2022-11-29T03:54:14.304Z,-3.30
2022-11-29T03:56:41.885Z,-3.22
2022-11-29T03:59:20.129Z,-3.20
2022-11-29T04:02:24.257Z,-3.17
2022-11-29T04:05:09.218Z,-3.10
2022-11-29T04:08:14.524Z,-3.07
2022-11-29T04:10:56.278Z,-2.99
2022-11-29T04:13:44.594Z,-2.96
2022-11-29T04:16:48.042Z,-2.99
2022-11-29T04:19:43.927Z,-3.00
2022-11-29T04:22:16.460Z,-2.96
2022-11-29T04:25:01.187Z,-3.00
2022-11-29T04:27:41.563Z,-3.01
2022-11-29T04:30:20.515Z,-3.08
2022-11-29T04:32:59.276Z,-3.15
2022-11-29T04:35:56.822Z,-3.25
2022-11-29T04:38:42.341Z,-3.31
2022-11-29T04:41:36.697Z,-3.38
2022-11-29T04:44:24.939Z,-3.40
2022-11-29T04:47:00.678Z,-3.40
2022-11-29T04:49:36.081Z,-3.41
2022-11-29T04:52:24.887Z,-3.45
2022-11-29T04:55:26.162Z,-3.42
2022-11-29T04:58:04.890Z,-3.46
2022-11-29T05:00:39.327Z,-3.48
2022-11-29T05:03:14.491Z,-3.47
2022-11-29T05:05:59.140Z,-3.37
2022-11-29T05:08:37.603Z,-3.35
2022-11-29T05:11:26.363Z,-3.33
2022-11-29T05:14:02.422Z,-3.32
2022-11-29T05:16:32.459Z,-3.23
2022-11-29T05:19:20.586Z,-3.18
2022-11-29T05:21:52.250Z,-3.12
2022-11-29T05:24:47.936Z,-3.05
2022-11-29T05:27:17.353Z,-3.10
2022-11-29T05:30:15.301Z,-3.09
2022-11-29T05:32:44.972Z,-3.03
2022-11-29T05:35:40.865Z,-3.13
2022-11-29T05:38:14.262Z,-3.26
2022-11-29T05:41:08.855Z,-3.27
2022-11-29T05:43:46.731Z,-3.18
2022-11-29T05:46:28.873Z,-3.19
2022-11-29T05:49:10.759Z,-3.44
2022-11-29T05:52:01.160Z,-3.53
2022-11-29T05:54:34.434Z,-3.54
2022-11-29T05:57:33.871Z,-3.29
2022-11-29T06:00:03.219Z,-3.33
2022-11-29T06:02:48.536Z,-3.38
2022-11-29T06:05:28.781Z,-3.34
2022-11-29T06:07:55.390Z,-3.28
2022-11-29T06:10:30.015Z,-3.29
2022-11-29T06:13:11.526Z,-3.19
2022-11-29T06:16:08.043Z,-3.12
2022-11-29T06:18:56.527Z,-3.05
2022-11-29T06:21:41.958Z,-3.03
2022-11-29T06:24:27.052Z,-3.06
2022-11-29T06:27:05.409Z,-3.05
2022-11-29T06:29:56.596Z,-3.05
2022-11-29T06:32:29.169Z,-2.95
2022-11-29T06:35:05.726Z,-2.90
2022-11-29T06:37:42.998Z,-2.93
2022-11-29T06:40:12.943Z,-2.93
2022-11-29T06:42:39.575Z,-2.73
2022-11-29T06:45:07.109Z,-2.64
2022-11-29T06:47:46.958Z,-2.72
2022-11-29T06:50:29.526Z,-2.65
2022-11-29T06:53:10.249Z,-2.48
2022-11-29T06:55:52.613Z,-2.42
2022-11-29T06:58:50.999Z,-2.42
2022-11-29T07:01:53.914Z,-2.24
2022-11-29T07:04:46.802Z,-2.22
2022-11-29T07:07:18.514Z,-2.17
2022-11-29T07:09:47.353Z,-2.12
2022-11-29T07:12:14.720Z,-2.11
2022-11-29T07:14:41.625Z,-1.98
2022-11-29T07:17:27.566Z,-1.88
2022-11-29T07:20:01.623Z,-1.86
2022-11-29T07:22:46.390Z,-1.90
2022-11-29T07:25:42.203Z,-1.82
2022-11-29T07:28:47.061Z,-1.80
2022-11-29T07:31:28.797Z,-1.77
2022-11-29T07:34:37.057Z,-1.78
2022-11-29T07:37:30.966Z,-1.80
2022-11-29T07:40:03.514Z,-1.75
2022-11-29T07:43:01.137Z,-1.73
2022-11-29T07:45:29.970Z,-1.63
2022-11-29T07:48:05.645Z,-1.65
2022-11-29T07:50:32.331Z,-1.71
2022-11-29T07:52:59.809Z,-1.71
2022-11-29T07:55:27.179Z,-1.65
2022-11-29T07:57:53.929Z,-1.54
2022-11-29T08:00:21.604Z,-1.53
2022-11-29T08:02:50.083Z,-1.45
2022-11-29T08:05:17.363Z,-1.47
2022-11-29T08:07:44.175Z,-1.37
2022-11-29T08:10:14.821Z,-1.32
2022-11-29T08:12:50.326Z,-1.12
2022-11-29T08:15:21.304Z,-0.99
2022-11-29T08:17:48.381Z,-1.02
2022-11-29T08:20:16.711Z,-0.95
2022-11-29T08:22:43.571Z,-0.94
2022-11-29T08:25:10.885Z,-0.83
2022-11-29T08:27:38.764Z,-0.82
2022-11-29T08:30:06.893Z,-0.81
2022-11-29T08:32:34.173Z,-0.65
2022-11-29T08:35:00.879Z,-0.59
2022-11-29T08:37:27.460Z,-0.49
2022-11-29T08:39:55.344Z,-0.38
2022-11-29T08:42:21.984Z,-0.31
2022-11-29T08:44:48.690Z,-0.29
2022-11-29T08:47:33.604Z,-0.16
2022-11-29T08:50:02.868Z,-0.19
2022-11-29T08:52:48.452Z,-0.26
2022-11-29T08:55:15.931Z,-0.23
2022-11-29T08:57:42.752Z,-0.25
2022-11-29T09:00:10.455Z,-0.15
2022-11-29T09:02:37.707Z,-0.09
2022-11-29T09:05:05.936Z,0.06
2022-11-29T09:07:32.938Z,0.15
2022-11-29T09:10:04.969Z,0.28
2022-11-29T09:12:32.820Z,0.34
2022-11-29T09:14:59.825Z,0.39
2022-11-29T09:17:27.016Z,0.49
2022-11-29T09:19:53.737Z,0.58
2022-11-29T09:22:20.589Z,0.70
2022-11-29T09:24:47.576Z,0.73
2022-11-29T09:27:14.633Z,0.80
2022-11-29T09:29:41.281Z,0.84
2022-11-29T09:32:08.009Z,0.90
2022-11-29T09:34:34.700Z,0.97
2022-11-29T09:37:01.494Z,1.02
2022-11-29T09:39:30.531Z,1.07
2022-11-29T09:42:27.525Z,1.13
2022-11-29T09:45:13.031Z,1.24
2022-11-29T09:47:58.087Z,1.20
2022-11-29T09:50:57.684Z,1.29
2022-11-29T09:53:30.438Z,1.42
2022-11-29T09:56:05.950Z,1.48
2022-11-29T09:58:41.168Z,1.57
2022-11-29T10:01:13.179Z,1.52
2022-11-29T10:03:48.597Z,1.66
2022-11-29T10:06:26.796Z,1.80
2022-11-29T10:09:06.005Z,1.85
2022-11-29T10:11:44.022Z,2.01
2022-11-29T10:14:20.382Z,2.10
2022-11-29T10:17:04.186Z,2.14
2022-11-29T10:19:48.143Z,2.12
2022-11-29T10:22:59.369Z,2.28
2022-11-29T10:25:45.570Z,2.23
2022-11-29T10:28:33.629Z,2.24
2022-11-29T10:31:37.059Z,2.38
2022-11-29T10:34:13.647Z,2.64
2022-11-29T10:36:52.921Z,2.69
2022-11-29T10:39:45.299Z,2.70
2022-11-29T10:42:39.090Z,2.75
2022-11-29T10:45:18.186Z,2.77
2022-11-29T10:47:47.658Z,2.79
2022-11-29T10:50:21.544Z,2.92
2022-11-29T10:52:48.230Z,2.99
2022-11-29T10:55:17.806Z,2.95
2022-11-29T10:58:12.597Z,3.01
2022-11-29T11:00:46.929Z,3.08
2022-11-29T11:03:25.863Z,3.08
2022-11-29T11:06:19.937Z,3.31
2022-11-29T11:08:55.834Z,3.45
2022-11-29T11:11:31.584Z,3.45
2022-11-29T11:14:32.082Z,3.49
2022-11-29T11:17:32.861Z,3.58
2022-11-29T11:20:08.432Z,3.46
2022-11-29T11:22:39.929Z,3.57
2022-11-29T11:25:25.245Z,3.72
2022-11-29T11:27:52.052Z,3.75
2022-11-29T11:30:24.005Z,3.75
2022-11-29T11:33:16.427Z,3.75
2022-11-29T11:35:43.085Z,3.68
2022-11-29T11:38:17.855Z,3.78
2022-11-29T11:40:45.252Z,3.76
2022-11-29T11:43:30.684Z,3.64
2022-11-29T11:45:57.377Z,3.69
2022-11-29T11:48:24.575Z,3.70
2022-11-29T11:50:52.954Z,3.70
2022-11-29T11:53:25.023Z,3.58
2022-11-29T11:56:01.516Z,3.75
2022-11-29T11:58:56.944Z,3.89
2022-11-29T12:01:23.548Z,4.03
2022-11-29T12:04:25.458Z,3.98
2022-11-29T12:07:00.140Z,4.11
2022-11-29T12:09:48.548Z,4.03
2022-11-29T12:12:25.767Z,4.06
2022-11-29T12:14:58.558Z,4.31
2022-11-29T12:17:31.542Z,4.36
2022-11-29T12:20:16.618Z,4.49
2022-11-29T12:23:12.347Z,4.46
2022-11-29T12:25:49.331Z,4.37
2022-11-29T12:28:20.805Z,4.54
2022-11-29T12:31:05.973Z,4.58
2022-11-29T12:33:46.519Z,4.69
2022-11-29T12:36:58.283Z,4.52
2022-11-29T12:39:25.602Z,4.40
2022-11-29T12:42:03.528Z,4.40
2022-11-29T12:44:36.652Z,4.48
2022-11-29T12:50:28.914Z,4.31
2022-11-29T12:53:07.845Z,4.30
2022-11-29T12:56:00.759Z,4.24
2022-11-29T12:58:45.977Z,4.08
2022-11-29T13:01:29.624Z,4.18
2022-11-29T13:04:07.580Z,4.37
2022-11-29T13:06:43.870Z,4.41
2022-11-29T13:09:25.314Z,4.36
2022-11-29T13:12:18.261Z,4.30
2022-11-29T13:15:03.166Z,4.09
2022-11-29T13:17:57.051Z,3.95
2022-11-29T13:20:52.900Z,3.85
2022-11-29T13:26:37.920Z,3.93
2022-11-29T13:29:07.018Z,3.87
2022-11-29T13:31:37.652Z,3.80
2022-11-29T13:34:15.915Z,3.74
2022-11-29T13:37:06.147Z,3.76
2022-11-29T13:39:40.878Z,3.73
2022-11-29T13:42:21.252Z,3.70
2022-11-29T13:45:03.002Z,3.58
2022-11-29T13:47:29.757Z,3.54
2022-11-29T13:49:57.123Z,3.51
2022-11-29T13:52:28.485Z,3.44
2022-11-29T13:55:14.697Z,3.46
2022-11-29T13:58:14.840Z,3.41
2022-11-29T14:00:43.978Z,3.30
2022-11-29T14:03:28.660Z,3.25
2022-11-29T14:06:14.914Z,3.17
2022-11-29T14:11:43.015Z,2.92
2022-11-29T14:14:22.621Z,2.86
2022-11-29T14:17:02.073Z,2.73
2022-11-29T14:19:36.130Z,2.74
2022-11-29T14:22:02.898Z,2.73
2022-11-29T14:24:32.493Z,2.67
2022-11-29T14:27:09.045Z,2.66
2022-11-29T14:29:51.858Z,2.66
2022-11-29T14:32:26.702Z,2.59
2022-11-29T14:35:10.504Z,2.54
2022-11-29T14:38:01.967Z,2.50
2022-11-29T14:40:44.270Z,2.35
2022-11-29T14:43:33.096Z,2.22
2022-11-29T14:46:29.061Z,2.23
2022-11-29T14:48:56.141Z,2.26
2022-11-29T14:51:29.899Z,2.23
2022-11-29T14:54:39.201Z,2.15
2022-11-29T14:57:43.516Z,2.05
2022-11-29T15:00:12.710Z,1.97
2022-11-29T15:02:47.907Z,1.92
2022-11-29T15:05:21.654Z,1.83
2022-11-29T15:08:14.493Z,1.75
2022-11-29T15:10:50.153Z,1.69
2022-11-29T15:13:24.597Z,1.68
2022-11-29T15:16:09.576Z,1.63
2022-11-29T15:19:08.415Z,1.54
2022-11-29T15:21:49.610Z,1.54
2022-11-29T15:24:17.306Z,1.53
2022-11-29T15:27:04.013Z,1.53
2022-11-29T15:29:31.661Z,1.52
2022-11-29T15:32:01.709Z,1.48
2022-11-29T15:34:50.739Z,1.38
2022-11-29T15:37:23.570Z,1.32
2022-11-29T15:40:05.005Z,1.20
2022-11-29T15:42:43.617Z,1.09
2022-11-29T15:45:29.145Z,1.04
2022-11-29T15:48:29.945Z,1.02
2022-11-29T15:51:28.171Z,1.02
2022-11-29T15:54:12.062Z,1.08
2022-11-29T15:56:43.294Z,1.01
2022-11-29T15:59:22.011Z,0.94
2022-11-29T16:01:52.434Z,0.89
2022-11-29T16:04:21.643Z,0.80
2022-11-29T16:06:49.822Z,0.76
2022-11-29T16:09:27.020Z,0.73
2022-11-29T16:11:53.814Z,0.70
2022-11-29T16:14:28.426Z,0.70
2022-11-29T16:16:58.211Z,0.71
2022-11-29T16:19:37.042Z,0.65
2022-11-29T16:22:12.527Z,0.65
2022-11-29T16:24:58.103Z,0.60
2022-11-29T16:27:25.001Z,0.53
2022-11-29T16:29:55.104Z,0.48
2022-11-29T16:32:26.924Z,0.45
2022-11-29T16:34:54.561Z,0.36
2022-11-29T16:37:26.833Z,0.26
2022-11-29T16:39:59.354Z,0.29
2022-11-29T16:42:28.616Z,0.19
2022-11-29T16:45:02.086Z,0.35
2022-11-29T16:47:58.904Z,0.30
2022-11-29T16:50:30.832Z,0.02
2022-11-29T16:53:32.421Z,-0.11
2022-11-29T16:56:01.062Z,-0.14
2022-11-29T16:58:28.213Z,-0.30
2022-11-29T17:00:55.571Z,-0.15
2022-11-29T17:03:22.618Z,-0.09
2022-11-29T17:05:49.973Z,-0.04
2022-11-29T17:08:16.627Z,-0.11
2022-11-29T17:10:43.243Z,-0.02
2022-11-29T17:13:11.514Z,-0.10
2022-11-29T17:15:38.219Z,-0.15
2022-11-29T17:18:04.950Z,-0.25
2022-11-29T17:20:31.559Z,-0.26
2022-11-29T17:22:58.119Z,-0.21
2022-11-29T17:25:24.780Z,-0.16
2022-11-29T17:28:00.907Z,-0.16
2022-11-29T17:30:32.740Z,-0.13
2022-11-29T17:32:59.521Z,-0.14
2022-11-29T17:35:26.137Z,-0.19
2022-11-29T17:37:52.745Z,-0.23
2022-11-29T17:40:20.425Z,-0.25
2022-11-29T17:42:48.562Z,-0.26
2022-11-29T17:45:15.240Z,-0.41
2022-11-29T17:47:44.700Z,-0.39
2022-11-29T17:50:11.741Z,-0.33
2022-11-29T17:52:39.263Z,-0.39
2022-11-29T17:55:06.456Z,-0.42
2022-11-29T17:57:33.044Z,-0.36
2022-11-29T17:59:59.679Z,-0.38
2022-11-29T18:02:26.401Z,-0.46
2022-11-29T18:04:55.334Z,-0.49
2022-11-29T18:07:21.935Z,-0.51
2022-11-29T18:09:49.037Z,-0.52
2022-11-29T18:12:15.766Z,-0.57
2022-11-29T18:14:42.418Z,-0.53
2022-11-29T18:17:09.090Z,-0.56
2022-11-29T18:19:35.861Z,-0.84
2022-11-29T18:22:03.003Z,-1.00
2022-11-29T18:24:29.669Z,-1.03
2022-11-29T18:26:56.276Z,-0.95
2022-11-29T18:29:23.317Z,-1.06
2022-11-29T18:31:50.325Z,-1.12
2022-11-29T18:34:17.009Z,-1.15
2022-11-29T18:36:46.358Z,-1.11
2022-11-29T18:39:18.441Z,-1.05
2022-11-29T18:41:48.014Z,-1.00
2022-11-29T18:44:17.186Z,-1.04
2022-11-29T18:46:45.325Z,-1.05
2022-11-29T18:49:14.891Z,-1.05
2022-11-29T18:51:44.633Z,-1.06
2022-11-29T18:54:12.104Z,-1.08
2022-11-29T18:56:38.715Z,-1.07
2022-11-29T18:59:12.447Z,-1.11
2022-11-29T19:01:43.638Z,-1.09
2022-11-29T19:04:13.825Z,-1.12
2022-11-29T19:06:40.939Z,-1.11
2022-11-29T19:09:15.868Z,-1.11
2022-11-29T19:11:42.603Z,-1.12
2022-11-29T19:14:12.773Z,-1.13
2022-11-29T19:16:42.179Z,-1.18
2022-11-29T19:19:09.063Z,-1.22
2022-11-29T19:21:36.137Z,-1.28
2022-11-29T19:24:05.719Z,-1.34
2022-11-29T19:26:33.584Z,-1.44
2022-11-29T19:29:01.907Z,-1.56
2022-11-29T19:31:28.913Z,-1.62
2022-11-29T19:33:56.289Z,-1.64
2022-11-29T19:36:28.569Z,-1.76
2022-11-29T19:39:01.021Z,-1.90
2022-11-29T19:41:30.518Z,-1.84
2022-11-29T19:43:59.804Z,-1.87
2022-11-29T19:46:31.888Z,-1.86
2022-11-29T19:49:00.372Z,-1.83
2022-11-29T19:51:28.782Z,-1.82
2022-11-29T19:53:57.996Z,-1.80
2022-11-29T19:56:25.593Z,-1.86
2022-11-29T19:58:52.461Z,-1.82
2022-11-29T20:01:22.567Z,-1.80
2022-11-29T20:03:49.960Z,-1.81
2022-11-29T20:06:18.231Z,-1.79
2022-11-29T20:08:45.659Z,-1.79
2022-11-29T20:11:15.481Z,-1.72
2022-11-29T20:13:44.587Z,-1.69
2022-11-29T20:16:14.677Z,-1.70
2022-11-29T20:18:50.160Z,-1.71
2022-11-29T20:21:31.853Z,-1.63
2022-11-29T20:24:07.857Z,-1.64
2022-11-29T20:26:37.585Z,-1.69
2022-11-29T20:29:05.316Z,-1.66
2022-11-29T20:31:34.205Z,-1.61
2022-11-29T20:34:01.380Z,-1.62
2022-11-29T20:36:40.279Z,-1.68
2022-11-29T20:39:18.537Z,-1.74
2022-11-29T20:41:51.282Z,-1.73
2022-11-29T20:44:33.145Z,-1.80
2022-11-29T20:47:00.202Z,-1.81
2022-11-29T20:49:27.139Z,-1.81
2022-11-29T20:52:04.806Z,-1.82
2022-11-29T20:54:31.398Z,-1.97
2022-11-29T20:56:58.057Z,-2.10
2022-11-29T20:59:24.620Z,-2.18
2022-11-29T21:01:51.220Z,-2.21
2022-11-29T21:04:23.144Z,-2.39
2022-11-29T21:06:50.285Z,-2.38
2022-11-29T21:09:16.878Z,-2.36
2022-11-29T21:11:43.662Z,-2.42
2022-11-29T21:14:10.686Z,-2.42
2022-11-29T21:16:37.587Z,-2.31
2022-11-29T21:19:04.513Z,-2.32
2022-11-29T21:21:31.068Z,-2.29
2022-11-29T21:24:00.628Z,-2.19
2022-11-29T21:26:50.807Z,-2.17
2022-11-29T21:29:19.139Z,-2.15
2022-11-29T21:31:48.408Z,-2.18
2022-11-29T21:34:15.051Z,-2.23
2022-11-29T21:36:42.098Z,-2.26
2022-11-29T21:39:13.231Z,-2.24
2022-11-29T21:41:39.783Z,-2.16
2022-11-29T21:44:07.991Z,-2.19
2022-11-29T21:46:35.639Z,-2.14
2022-11-29T21:49:02.394Z,-2.10
2022-11-29T21:51:29.014Z,-2.17
2022-11-29T21:53:55.692Z,-2.32
2022-11-29T21:56:22.339Z,-2.50
2022-11-29T21:58:48.965Z,-2.51
2022-11-29T22:01:19.334Z,-2.50
2022-11-29T22:03:46.100Z,-2.59
2022-11-29T22:06:20.906Z,-2.67
2022-11-29T22:08:48.488Z,-2.67
2022-11-29T22:11:30.555Z,-2.70
2022-11-29T22:14:15.331Z,-2.73
2022-11-29T22:17:01.351Z,-2.73
2022-11-29T22:19:33.631Z,-2.75
2022-11-29T22:22:05.392Z,-2.75
2022-11-29T22:24:34.745Z,-2.75
2022-11-29T22:27:01.802Z,-2.79
2022-11-29T22:29:28.457Z,-2.81
2022-11-29T22:31:56.701Z,-2.85
2022-11-29T22:34:25.329Z,-2.74
2022-11-29T22:36:51.980Z,-2.79
2022-11-29T22:39:18.590Z,-2.71
2022-11-29T22:41:50.806Z,-2.70
2022-11-29T22:44:20.448Z,-2.71
2022-11-29T22:46:47.145Z,-2.69
2022-11-29T22:49:13.862Z,-2.75
2022-11-29T22:51:40.505Z,-2.83
2022-11-29T22:54:09.108Z,-2.95
2022-11-29T22:56:38.148Z,-3.03
2022-11-29T22:59:05.103Z,-3.01
2022-11-29T23:01:33.524Z,-3.06
2022-11-29T23:04:03.942Z,-3.15
2022-11-29T23:06:34.280Z,-3.20
2022-11-29T23:09:07.298Z,-3.19
2022-11-29T23:11:34.146Z,-3.24
2022-11-29T23:14:00.838Z,-3.12
2022-11-29T23:16:29.636Z,-3.18
2022-11-29T23:19:00.842Z,-3.23
2022-11-29T23:21:31.489Z,-3.19
2022-11-29T23:24:02.037Z,-3.23
2022-11-29T23:26:40.505Z,-3.27
2022-11-29T23:29:09.879Z,-3.41
2022-11-29T23:31:36.667Z,-3.49
2022-11-29T23:34:04.112Z,-3.44
2022-11-29T23:36:30.785Z,-3.44
2022-11-29T23:38:57.450Z,-3.38
2022-11-29T23:41:24.360Z,-3.38
2022-11-29T23:43:50.936Z,-3.36
2022-11-29T23:46:23.938Z,-3.36
2022-11-29T23:48:51.443Z,-3.33
2022-11-29T23:51:19.639Z,-3.36
2022-11-29T23:53:46.873Z,-3.26
2022-11-29T23:56:15.995Z,-3.24
2022-11-29T23:58:44.148Z,-3.21
